createdAt,value
2023-04-17T00:01:40.672Z,10.15
2023-04-17T00:04:11.268Z,11.30
2023-04-17T00:06:38.711Z,10.48
2023-04-17T00:09:06.146Z,10.77
2023-04-17T00:11:32.903Z,9.90
2023-04-17T00:13:59.775Z,10.10
2023-04-17T00:16:27.273Z,10.60
2023-04-17T00:18:57.211Z,10.40
2023-04-17T00:21:23.973Z,11.88
2023-04-17T00:23:50.645Z,10.80
2023-04-17T00:26:17.283Z,10.40
2023-04-17T00:28:44.462Z,11.43
2023-04-17T00:31:11.171Z,10.88
2023-04-17T00:33:37.811Z,10.50
2023-04-17T00:36:04.808Z,10.90
2023-04-17T00:38:31.496Z,11.40
2023-04-17T00:40:58.409Z,10.95
2023-04-17T00:43:25.058Z,11.70
2023-04-17T00:45:53.810Z,9.57
2023-04-17T00:48:24.002Z,11.48
2023-04-17T00:50:50.866Z,10.73
2023-04-17T00:53:17.976Z,11.38
2023-04-17T00:55:47.081Z,10.75
2023-04-17T00:58:14.137Z,10.98
2023-04-17T01:00:41.224Z,11.95
2023-04-17T01:03:08.832Z,11.02
2023-04-17T01:05:38.259Z,11.02
2023-04-17T01:08:05.192Z,10.45
2023-04-17T01:10:31.901Z,11.25
2023-04-17T01:13:06.173Z,11.15
2023-04-17T01:15:34.902Z,11.63
2023-04-17T01:18:02.281Z,10.60
2023-04-17T01:20:32.404Z,10.60
2023-04-17T01:22:59.800Z,11.77
2023-04-17T01:25:28.050Z,11.57
2023-04-17T01:27:55.167Z,11.73
2023-04-17T01:30:22.190Z,11.73
2023-04-17T01:32:59.798Z,11.40
2023-04-17T01:35:26.773Z,12.07
2023-04-17T01:37:55.696Z,12.75
2023-04-17T01:40:22.404Z,11.82
2023-04-17T01:42:49.217Z,13.35
2023-04-17T01:45:16.249Z,13.25
2023-04-17T01:47:42.919Z,12.85
2023-04-17T01:50:10.414Z,11.90
2023-04-17T01:52:37.110Z,13.05
2023-04-17T01:55:04.409Z,12.52
2023-04-17T01:57:32.686Z,13.50
2023-04-17T01:59:59.330Z,13.73
2023-04-17T02:02:26.235Z,14.55
2023-04-17T02:04:54.402Z,13.43
2023-04-17T02:07:21.705Z,14.68
2023-04-17T02:09:48.301Z,15.88
2023-04-17T02:12:15.423Z,14.30
2023-04-17T02:14:43.002Z,14.18
2023-04-17T02:17:09.645Z,15.25
2023-04-17T02:19:36.400Z,15.00
2023-04-17T02:22:03.032Z,14.55
2023-04-17T02:24:30.688Z,14.18
2023-04-17T02:27:00.244Z,13.55
2023-04-17T02:29:26.935Z,12.73
2023-04-17T02:31:54.176Z,12.93
2023-04-17T02:34:21.113Z,13.23
2023-04-17T02:36:50.048Z,13.40
2023-04-17T02:39:18.854Z,13.23
2023-04-17T02:41:45.495Z,12.55
2023-04-17T02:44:12.238Z,12.38
2023-04-17T02:46:38.921Z,12.23
2023-04-17T02:49:05.752Z,13.05
2023-04-17T02:51:32.406Z,12.25
2023-04-17T02:53:59.131Z,12.77
2023-04-17T02:56:25.787Z,11.73
2023-04-17T02:58:52.493Z,12.65
2023-04-17T03:01:19.303Z,11.95
2023-04-17T03:03:47.748Z,12.00
2023-04-17T03:06:15.245Z,11.93
2023-04-17T03:08:41.965Z,11.10
2023-04-17T03:11:08.812Z,10.57
2023-04-17T03:13:37.129Z,10.57
2023-04-17T03:16:05.114Z,10.50
2023-04-17T03:18:35.667Z,10.60
2023-04-17T03:21:02.662Z,10.93
2023-04-17T03:23:29.516Z,9.75
2023-04-17T03:25:56.428Z,9.55
2023-04-17T03:28:23.973Z,9.38
2023-04-17T03:30:51.580Z,9.68
2023-04-17T03:33:18.511Z,10.27
2023-04-17T03:35:46.614Z,9.77
2023-04-17T03:38:13.634Z,10.40
2023-04-17T03:40:40.828Z,8.82
2023-04-17T03:43:08.030Z,10.40
2023-04-17T03:45:35.087Z,9.93
2023-04-17T03:48:02.635Z,8.85
2023-04-17T03:50:30.760Z,8.88
2023-04-17T03:52:57.459Z,8.63
2023-04-17T03:55:26.484Z,8.70
2023-04-17T03:57:53.781Z,8.75
2023-04-17T04:00:21.861Z,8.60
2023-04-17T04:02:53.004Z,8.25
2023-04-17T04:05:24.861Z,8.48
2023-04-17T04:07:52.655Z,8.88
2023-04-17T04:10:27.995Z,8.80
2023-04-17T04:12:55.999Z,8.50
2023-04-17T04:15:24.252Z,8.02
2023-04-17T04:17:55.348Z,9.40
2023-04-17T04:20:24.634Z,8.30
2023-04-17T04:22:59.351Z,7.53
2023-04-17T04:25:26.668Z,6.63
2023-04-17T04:28:10.641Z,7.53
2023-04-17T04:30:38.763Z,7.60
2023-04-17T04:33:13.431Z,6.40
2023-04-17T04:35:41.853Z,6.28
2023-04-17T04:38:09.489Z,6.70
2023-04-17T04:40:38.431Z,6.40
2023-04-17T04:43:06.848Z,7.13
2023-04-17T04:45:40.810Z,6.75
2023-04-17T04:48:07.570Z,5.93
2023-04-17T04:50:34.304Z,6.13
2023-04-17T04:53:01.160Z,5.65
2023-04-17T04:55:46.006Z,5.80
2023-04-17T04:58:12.905Z,6.13
2023-04-17T05:00:41.561Z,5.80
2023-04-17T05:03:16.902Z,5.63
2023-04-17T05:05:45.173Z,5.15
2023-04-17T05:08:14.772Z,6.07
2023-04-17T05:10:46.073Z,5.38
2023-04-17T05:13:14.098Z,6.00
2023-04-17T05:15:41.565Z,4.85
2023-04-17T05:18:09.474Z,5.20
2023-04-17T05:20:37.706Z,5.95
2023-04-17T05:23:05.072Z,5.18
2023-04-17T05:25:31.704Z,4.32
2023-04-17T05:28:00.986Z,5.40
2023-04-17T05:30:27.703Z,4.63
2023-04-17T05:33:06.633Z,4.40
2023-04-17T05:35:55.975Z,4.65
2023-04-17T05:38:23.453Z,5.47
2023-04-17T05:40:50.298Z,4.68
2023-04-17T05:43:16.981Z,4.35
2023-04-17T05:45:43.630Z,4.20
2023-04-17T05:48:10.787Z,4.07
2023-04-17T05:50:37.643Z,3.85
2023-04-17T05:53:06.049Z,4.18
2023-04-17T05:55:37.723Z,3.97
2023-04-17T05:58:22.538Z,4.20
2023-04-17T06:00:51.713Z,4.05
2023-04-17T06:03:19.701Z,3.47
2023-04-17T06:05:50.194Z,4.40
2023-04-17T06:08:17.283Z,4.22
2023-04-17T06:10:45.934Z,3.95
2023-04-17T06:13:12.825Z,3.95
2023-04-17T06:15:44.014Z,3.53
2023-04-17T06:18:10.658Z,4.05
2023-04-17T06:20:39.890Z,3.38
2023-04-17T06:23:06.800Z,3.28
2023-04-17T06:25:33.496Z,3.00
2023-04-17T06:28:00.449Z,3.33
2023-04-17T06:30:28.091Z,3.70
2023-04-17T06:32:55.719Z,3.50
2023-04-17T06:35:22.555Z,3.80
2023-04-17T06:37:58.236Z,3.22
2023-04-17T06:40:24.957Z,2.97
2023-04-17T06:42:51.866Z,2.88
2023-04-17T06:45:20.583Z,2.90
2023-04-17T06:47:47.276Z,3.05
2023-04-17T06:50:18.261Z,3.03
2023-04-17T06:52:44.957Z,3.45
2023-04-17T06:55:43.388Z,3.17
2023-04-17T06:58:21.656Z,2.55
2023-04-17T07:00:48.489Z,2.78
2023-04-17T07:03:16.602Z,3.55
2023-04-17T07:05:46.583Z,2.97
2023-04-17T07:08:13.625Z,2.55
2023-04-17T07:10:40.421Z,2.25
2023-04-17T07:13:07.261Z,2.65
2023-04-17T07:15:33.982Z,2.55
2023-04-17T07:18:00.725Z,2.80
2023-04-17T07:20:27.574Z,3.05
2023-04-17T07:22:55.497Z,2.88
2023-04-17T07:25:22.896Z,2.80
2023-04-17T07:27:50.196Z,3.03
2023-04-17T07:30:16.873Z,3.25
2023-04-17T07:32:43.598Z,3.38
2023-04-17T07:35:10.322Z,3.55
2023-04-17T07:37:37.141Z,3.38
2023-04-17T07:40:05.773Z,3.45
2023-04-17T07:42:32.666Z,3.50
2023-04-17T07:44:59.436Z,3.88
2023-04-17T07:47:26.330Z,3.40
2023-04-17T07:49:53.181Z,3.65
2023-04-17T07:52:20.234Z,3.70
2023-04-17T07:54:47.235Z,3.30
2023-04-17T07:57:15.486Z,3.40
2023-04-17T07:59:42.228Z,3.60
2023-04-17T08:02:09.130Z,3.42
2023-04-17T08:04:36.146Z,3.10
2023-04-17T08:07:03.079Z,3.10
2023-04-17T08:09:29.804Z,3.63
2023-04-17T08:11:58.252Z,3.10
2023-04-17T08:14:25.456Z,3.53
2023-04-17T08:16:52.482Z,3.78
2023-04-17T08:19:19.409Z,3.45
2023-04-17T08:21:49.953Z,4.18
2023-04-17T08:24:19.740Z,4.60
2023-04-17T08:26:47.803Z,3.60
2023-04-17T08:29:15.117Z,3.35
2023-04-17T08:31:42.034Z,3.38
2023-04-17T08:34:14.315Z,3.25
2023-04-17T08:36:42.940Z,2.95
2023-04-17T08:39:12.214Z,2.78
2023-04-17T08:42:06.735Z,2.97
2023-04-17T08:44:33.436Z,3.53
2023-04-17T08:47:00.245Z,2.97
2023-04-17T08:49:29.435Z,2.90
2023-04-17T08:51:56.218Z,2.50
2023-04-17T08:54:23.001Z,3.15
2023-04-17T08:56:49.780Z,2.65
2023-04-17T08:59:19.253Z,3.50
2023-04-17T09:02:03.678Z,3.03
2023-04-17T09:04:39.687Z,3.78
2023-04-17T09:07:08.102Z,3.55
2023-04-17T09:09:48.169Z,2.90
2023-04-17T09:12:15.420Z,3.38
2023-04-17T09:14:42.075Z,3.22
2023-04-17T09:17:08.876Z,2.33
2023-04-17T09:19:36.543Z,2.70
2023-04-17T09:22:22.446Z,2.42
2023-04-17T09:27:27.033Z,2.30
2023-04-17T09:30:06.110Z,2.47
2023-04-17T09:32:33.806Z,3.22
2023-04-17T09:35:03.582Z,2.42
2023-04-17T09:37:50.178Z,2.53
2023-04-17T09:40:18.794Z,2.78
2023-04-17T09:42:58.348Z,2.47
2023-04-17T09:45:26.618Z,2.15
2023-04-17T09:47:55.949Z,2.40
2023-04-17T09:50:26.212Z,2.20
2023-04-17T09:52:54.731Z,2.90
2023-04-17T09:55:23.849Z,2.83
2023-04-17T09:57:56.119Z,2.30
2023-04-17T10:00:25.672Z,3.13
2023-04-17T10:02:53.914Z,2.53
2023-04-17T10:05:22.576Z,3.15
2023-04-17T10:07:49.243Z,2.35
2023-04-17T10:10:42.404Z,2.15
2023-04-17T10:13:12.542Z,2.10
2023-04-17T10:15:39.667Z,2.20
2023-04-17T10:18:21.139Z,2.75
2023-04-17T10:20:48.883Z,2.58
2023-04-17T10:23:31.494Z,2.60
2023-04-17T10:26:25.811Z,2.40
2023-04-17T10:28:54.173Z,2.50
2023-04-17T10:31:23.733Z,2.58
2023-04-17T10:33:52.808Z,2.72
2023-04-17T10:36:39.774Z,2.17
2023-04-17T10:39:13.872Z,2.15
2023-04-17T10:42:03.204Z,2.05
2023-04-17T10:44:39.439Z,2.25
2023-04-17T10:47:15.842Z,2.25
2023-04-17T10:49:59.475Z,2.33
2023-04-17T10:52:32.411Z,2.40
2023-04-17T10:55:05.021Z,2.22
2023-04-17T10:57:50.197Z,2.70
2023-04-17T11:00:18.184Z,3.08
2023-04-17T11:02:46.161Z,2.38
2023-04-17T11:05:12.977Z,2.20
2023-04-17T11:07:41.589Z,2.40
2023-04-17T11:10:10.464Z,2.63
2023-04-17T11:12:39.228Z,2.42
2023-04-17T11:15:07.095Z,2.50
2023-04-17T11:17:33.818Z,2.50
2023-04-17T11:20:00.753Z,2.13
2023-04-17T11:22:33.795Z,2.30
2023-04-17T11:25:00.448Z,2.28
2023-04-17T11:27:27.739Z,2.28
2023-04-17T11:29:54.407Z,2.60
2023-04-17T11:32:21.290Z,2.50
2023-04-17T11:34:48.029Z,2.30
2023-04-17T11:37:15.096Z,2.25
2023-04-17T11:39:42.876Z,2.10
2023-04-17T11:42:09.588Z,2.40
2023-04-17T11:44:36.173Z,2.25
2023-04-17T11:47:04.004Z,2.05
2023-04-17T11:49:32.931Z,2.00
2023-04-17T11:52:01.525Z,2.30
2023-04-17T11:54:29.277Z,2.63
2023-04-17T11:57:12.491Z,2.20
2023-04-17T11:59:42.208Z,1.83
2023-04-17T12:02:09.700Z,1.55
2023-04-17T12:04:37.962Z,1.70
2023-04-17T12:07:06.117Z,1.90
2023-04-17T12:09:34.270Z,2.05
2023-04-17T12:12:03.797Z,1.45
2023-04-17T12:14:30.799Z,1.60
2023-04-17T12:16:57.544Z,1.35
2023-04-17T12:19:26.718Z,1.65
2023-04-17T12:21:54.404Z,1.60
2023-04-17T12:24:24.242Z,1.65
2023-04-17T12:26:51.753Z,1.48
2023-04-17T12:29:22.010Z,1.63
2023-04-17T12:31:51.284Z,1.20
2023-04-17T12:34:17.910Z,1.77
2023-04-17T12:36:44.737Z,1.42
2023-04-17T12:39:12.940Z,1.17
2023-04-17T12:41:44.952Z,0.80
2023-04-17T12:44:11.911Z,1.35
2023-04-17T12:46:38.766Z,1.35
2023-04-17T12:49:05.436Z,1.40
2023-04-17T12:51:37.486Z,1.90
2023-04-17T12:54:04.396Z,1.50
2023-04-17T12:56:31.100Z,1.27
2023-04-17T12:58:58.933Z,1.63
2023-04-17T13:01:27.405Z,1.40
2023-04-17T13:03:54.290Z,1.30
2023-04-17T13:06:21.591Z,1.20
2023-04-17T13:08:48.354Z,1.40
2023-04-17T13:11:14.981Z,1.20
2023-04-17T13:13:41.628Z,1.15
2023-04-17T13:16:10.418Z,1.38
2023-04-17T13:18:37.589Z,1.00
2023-04-17T13:21:04.383Z,1.20
2023-04-17T13:23:31.352Z,1.63
2023-04-17T13:25:58.107Z,1.13
2023-04-17T13:28:24.771Z,1.23
2023-04-17T13:30:52.714Z,1.27
2023-04-17T13:33:19.403Z,1.48
2023-04-17T13:35:46.162Z,1.10
2023-04-17T13:38:13.012Z,1.50
2023-04-17T13:40:40.855Z,1.20
2023-04-17T13:43:07.698Z,1.30
2023-04-17T13:45:35.062Z,1.20
2023-04-17T13:48:01.901Z,1.38
2023-04-17T13:50:28.663Z,1.10
2023-04-17T13:52:55.406Z,1.55
2023-04-17T13:55:22.038Z,2.97
2023-04-17T13:57:48.770Z,2.08
2023-04-17T14:00:15.993Z,1.10
2023-04-17T14:02:43.082Z,1.10
2023-04-17T14:05:10.166Z,1.20
2023-04-17T14:07:37.698Z,0.80
2023-04-17T14:10:04.725Z,1.52
2023-04-17T14:12:31.413Z,1.27
2023-04-17T14:15:00.517Z,1.40
2023-04-17T14:17:27.313Z,1.40
2023-04-17T14:19:54.037Z,1.20
2023-04-17T14:22:20.875Z,1.13
2023-04-17T14:24:48.580Z,1.27
2023-04-17T14:27:15.314Z,1.45
2023-04-17T14:29:42.030Z,1.65
2023-04-17T14:32:08.760Z,1.02
2023-04-17T14:34:36.826Z,1.98
2023-04-17T14:37:03.670Z,1.23
2023-04-17T14:39:31.597Z,1.27
2023-04-17T14:42:01.215Z,1.30
2023-04-17T14:44:28.811Z,1.17
2023-04-17T14:46:57.455Z,1.27
2023-04-17T14:49:24.495Z,1.20
2023-04-17T14:51:51.264Z,1.08
2023-04-17T14:54:18.577Z,1.10
2023-04-17T14:56:45.411Z,1.13
2023-04-17T14:59:12.314Z,1.40
2023-04-17T15:01:39.398Z,1.23
2023-04-17T15:04:06.803Z,1.20
2023-04-17T15:06:33.627Z,1.35
2023-04-17T15:09:00.367Z,1.10
2023-04-17T15:11:26.964Z,1.00
2023-04-17T15:13:53.530Z,1.30
2023-04-17T15:16:20.183Z,1.52
2023-04-17T15:18:46.815Z,1.50
2023-04-17T15:21:16.647Z,1.58
2023-04-17T15:23:43.296Z,1.98
2023-04-17T15:26:10.247Z,1.75
2023-04-17T15:28:36.982Z,1.55
2023-04-17T15:31:03.655Z,1.42
2023-04-17T15:33:30.525Z,1.20
2023-04-17T15:35:58.742Z,1.60
2023-04-17T15:38:26.582Z,1.70
2023-04-17T15:40:53.907Z,1.17
2023-04-17T15:43:20.942Z,1.67
2023-04-17T15:45:51.766Z,1.35
2023-04-17T15:48:18.527Z,1.30
2023-04-17T15:50:45.640Z,1.20
2023-04-17T15:53:13.296Z,1.50
2023-04-17T15:55:41.356Z,1.30
2023-04-17T15:58:08.349Z,1.65
2023-04-17T16:00:35.121Z,2.08
2023-04-17T16:03:02.220Z,1.75
2023-04-17T16:05:30.324Z,1.90
2023-04-17T16:07:57.253Z,1.77
2023-04-17T16:10:24.047Z,1.55
2023-04-17T16:12:50.710Z,1.60
2023-04-17T16:15:17.655Z,3.20
2023-04-17T16:17:45.661Z,2.00
2023-04-17T16:20:14.057Z,2.20
2023-04-17T16:22:40.996Z,1.92
2023-04-17T16:25:08.489Z,10.60
2023-04-17T16:27:39.158Z,14.48
2023-04-17T16:30:07.937Z,45.67
2023-04-17T16:32:36.235Z,3.97
2023-04-17T16:35:02.951Z,3.47
2023-04-17T16:37:29.922Z,3.03
2023-04-17T16:39:56.867Z,1.95
2023-04-17T16:42:24.250Z,2.60
2023-04-17T16:44:56.871Z,1.77
2023-04-17T16:47:23.789Z,2.63
2023-04-17T16:49:50.700Z,2.17
2023-04-17T16:52:22.762Z,1.67
2023-04-17T16:54:50.809Z,2.40
2023-04-17T16:57:17.565Z,2.30
2023-04-17T16:59:44.285Z,1.88
2023-04-17T17:02:11.058Z,1.88
2023-04-17T17:04:37.877Z,2.00
2023-04-17T17:07:04.713Z,2.00
2023-04-17T17:09:31.437Z,2.28
2023-04-17T17:11:58.143Z,2.53
2023-04-17T17:14:25.010Z,2.28
2023-04-17T17:16:51.821Z,2.03
2023-04-17T17:19:20.108Z,2.70
2023-04-17T17:21:46.840Z,2.40
2023-04-17T17:24:13.536Z,3.00
2023-04-17T17:26:42.664Z,2.40
2023-04-17T17:29:09.440Z,2.10
2023-04-17T17:31:38.199Z,2.65
2023-04-17T17:34:24.625Z,2.10
2023-04-17T17:36:53.381Z,2.30
2023-04-17T17:39:24.104Z,2.13
2023-04-17T17:41:51.284Z,2.22
2023-04-17T17:45:03.163Z,1.80
2023-04-17T17:47:31.611Z,1.95
2023-04-17T17:49:59.824Z,2.28
2023-04-17T17:52:26.783Z,1.98
2023-04-17T17:54:58.807Z,1.88
2023-04-17T17:57:35.713Z,2.03
2023-04-17T18:00:15.838Z,1.75
2023-04-17T18:02:42.915Z,1.80
2023-04-17T18:05:09.803Z,1.88
2023-04-17T18:07:36.590Z,2.58
2023-04-17T18:10:03.495Z,2.10
2023-04-17T18:12:30.381Z,1.92
2023-04-17T18:14:57.131Z,1.73
2023-04-17T18:17:23.982Z,1.80
2023-04-17T18:19:50.874Z,2.15
2023-04-17T18:22:17.714Z,1.90
2023-04-17T18:24:44.394Z,2.30
2023-04-17T18:27:11.059Z,2.63
2023-04-17T18:29:37.694Z,1.70
2023-04-17T18:32:04.458Z,1.88
2023-04-17T18:34:31.344Z,1.75
2023-04-17T18:37:00.213Z,2.20
2023-04-17T18:39:26.875Z,2.30
2023-04-17T18:41:53.549Z,2.28
2023-04-17T18:44:20.747Z,2.10
2023-04-17T18:46:51.109Z,2.75
2023-04-17T18:49:17.771Z,2.22
2023-04-17T18:51:47.874Z,2.17
2023-04-17T18:54:17.794Z,2.13
2023-04-17T18:56:45.298Z,1.85
2023-04-17T18:59:12.116Z,2.13
2023-04-17T19:01:39.211Z,2.20
2023-04-17T19:04:05.947Z,2.58
2023-04-17T19:06:32.743Z,1.85
2023-04-17T19:08:59.397Z,2.50
2023-04-17T19:11:27.941Z,2.25
2023-04-17T19:13:54.619Z,1.95
2023-04-17T19:16:21.339Z,2.03
2023-04-17T19:18:48.038Z,2.10
2023-04-17T19:21:16.067Z,1.83
2023-04-17T19:23:43.006Z,2.63
2023-04-17T19:26:09.738Z,2.33
2023-04-17T19:28:36.553Z,1.98
2023-04-17T19:31:03.547Z,2.25
2023-04-17T19:33:32.028Z,2.00
2023-04-17T19:35:58.913Z,2.20
2023-04-17T19:38:26.046Z,1.92
2023-04-17T19:41:26.273Z,1.98
2023-04-17T19:43:54.184Z,1.80
2023-04-17T19:46:22.865Z,1.92
2023-04-17T19:48:50.817Z,2.10
2023-04-17T19:51:17.573Z,1.70
2023-04-17T19:53:46.261Z,2.10
2023-04-17T19:56:13.021Z,2.20
2023-04-17T19:58:41.230Z,1.70
2023-04-17T20:01:07.961Z,1.95
2023-04-17T20:03:35.614Z,2.30
2023-04-17T20:06:03.400Z,2.50
2023-04-17T20:08:30.139Z,1.60
2023-04-17T20:10:56.784Z,1.98
2023-04-17T20:13:23.403Z,2.13
2023-04-17T20:15:50.106Z,1.88
2023-04-17T20:18:17.874Z,1.90
2023-04-17T20:20:44.602Z,1.75
2023-04-17T20:23:11.300Z,2.00
2023-04-17T20:25:37.955Z,1.85
2023-04-17T20:28:05.100Z,2.03
2023-04-17T20:30:31.861Z,1.90
2023-04-17T20:32:58.649Z,1.83
2023-04-17T20:35:25.401Z,1.70
2023-04-17T20:37:52.224Z,2.13
2023-04-17T20:40:19.324Z,1.85
2023-04-17T20:42:47.426Z,1.60
2023-04-17T20:45:14.117Z,2.13
2023-04-17T20:47:55.950Z,1.75
2023-04-17T20:50:24.608Z,2.08
2023-04-17T20:52:53.834Z,2.10
2023-04-17T20:55:20.910Z,1.85
2023-04-17T20:57:48.256Z,1.70
2023-04-17T21:00:15.881Z,2.10
2023-04-17T21:02:43.543Z,1.73
2023-04-17T21:05:10.676Z,1.85
2023-04-17T21:07:38.050Z,1.88
2023-04-17T21:10:05.367Z,2.10
2023-04-17T21:12:33.092Z,2.10
2023-04-17T21:15:00.003Z,2.00
2023-04-17T21:17:26.754Z,2.40
2023-04-17T21:19:58.538Z,2.33
2023-04-17T21:22:25.322Z,2.22
2023-04-17T21:24:52.047Z,2.35
2023-04-17T21:27:18.727Z,2.13
2023-04-17T21:29:45.418Z,2.20
2023-04-17T21:32:14.940Z,2.15
2023-04-17T21:34:41.626Z,1.95
2023-04-17T21:37:11.292Z,1.60
2023-04-17T21:39:37.946Z,2.17
2023-04-17T21:42:04.702Z,2.22
2023-04-17T21:44:31.423Z,2.03
2023-04-17T21:46:58.130Z,2.10
2023-04-17T21:49:24.904Z,2.25
2023-04-17T21:51:51.648Z,2.03
2023-04-17T21:54:18.499Z,2.28
2023-04-17T21:56:45.528Z,2.17
2023-04-17T21:59:12.391Z,1.98
2023-04-17T22:01:41.370Z,1.90
2023-04-17T22:04:08.210Z,1.95
2023-04-17T22:06:36.873Z,2.40
2023-04-17T22:09:06.977Z,2.10
2023-04-17T22:11:33.905Z,1.90
2023-04-17T22:14:00.946Z,1.90
2023-04-17T22:16:28.047Z,1.85
2023-04-17T22:18:54.802Z,1.88
2023-04-17T22:21:21.466Z,2.15
2023-04-17T22:23:48.070Z,1.80
2023-04-17T22:26:14.691Z,1.88
2023-04-17T22:28:41.588Z,1.90
2023-04-17T22:31:08.280Z,1.88
2023-04-17T22:33:35.085Z,2.03
2023-04-17T22:36:01.711Z,2.15
2023-04-17T22:38:28.370Z,2.08
2023-04-17T22:40:55.307Z,2.10
2023-04-17T22:43:24.883Z,2.03
2023-04-17T22:45:51.739Z,2.00
2023-04-17T22:48:18.410Z,2.03
2023-04-17T22:50:45.623Z,1.80
2023-04-17T22:53:12.293Z,2.35
2023-04-17T22:55:38.941Z,2.22
2023-04-17T22:58:05.847Z,2.03
2023-04-17T23:00:32.638Z,2.28
2023-04-17T23:02:59.488Z,2.13
2023-04-17T23:05:26.256Z,2.10
2023-04-17T23:07:52.993Z,2.38
2023-04-17T23:10:20.698Z,2.33
2023-04-17T23:12:49.077Z,2.45
2023-04-17T23:15:15.792Z,2.20
2023-04-17T23:17:42.516Z,2.35
2023-04-17T23:20:09.548Z,2.25
2023-04-17T23:22:37.426Z,2.35
2023-04-17T23:25:04.398Z,2.30
2023-04-17T23:27:32.121Z,2.53
2023-04-17T23:29:59.505Z,2.58
2023-04-17T23:32:26.395Z,2.17
2023-04-17T23:34:53.064Z,2.53
2023-04-17T23:37:19.839Z,2.30
2023-04-17T23:39:47.429Z,2.13
2023-04-17T23:42:14.200Z,2.47
2023-04-17T23:44:40.975Z,2.88
2023-04-17T23:47:09.122Z,2.30
2023-04-17T23:49:36.083Z,2.72
2023-04-17T23:52:02.753Z,2.30
2023-04-17T23:54:29.381Z,2.40
2023-04-17T23:56:56.467Z,3.03
2023-04-17T23:59:23.088Z,2.40
